createdAt,value
2023-02-01T00:00:42.295Z,97.10
2023-02-01T00:03:10.392Z,97.40
2023-02-01T00:05:38.308Z,97.40
2023-02-01T00:08:06.466Z,97.20
2023-02-01T00:10:34.406Z,97.40
2023-02-01T00:13:02.311Z,97.10
2023-02-01T00:15:30.199Z,97.70
2023-02-01T00:17:59.439Z,97.60
2023-02-01T00:20:27.591Z,97.80
2023-02-01T00:22:55.570Z,98.00
2023-02-01T00:25:23.467Z,98.20
2023-02-01T00:27:51.783Z,97.90
2023-02-01T00:30:20.347Z,97.70
2023-02-01T00:32:48.431Z,97.80
2023-02-01T00:35:17.849Z,97.80
2023-02-01T00:37:45.760Z,97.60
2023-02-01T00:40:14.412Z,98.20
2023-02-01T00:42:42.319Z,98.10
2023-02-01T00:45:11.424Z,98.00
2023-02-01T00:47:39.423Z,98.10
2023-02-01T00:50:07.824Z,97.70
2023-02-01T00:52:37.132Z,97.80
2023-02-01T00:55:05.595Z,97.60
2023-02-01T00:57:33.515Z,97.60
2023-02-01T01:00:01.482Z,97.60
2023-02-01T01:02:30.002Z,97.70
2023-02-01T01:04:57.982Z,97.20
2023-02-01T01:07:25.959Z,97.60
2023-02-01T01:09:55.348Z,97.30
2023-02-01T01:12:23.331Z,97.60
2023-02-01T01:14:51.387Z,97.20
2023-02-01T01:17:19.373Z,97.60
2023-02-01T01:19:47.263Z,97.60
2023-02-01T01:22:15.209Z,97.60
2023-02-01T01:24:43.168Z,97.60
2023-02-01T01:27:12.455Z,97.50
2023-02-01T01:29:40.340Z,97.50
2023-02-01T01:32:08.282Z,97.30
2023-02-01T01:34:36.251Z,97.60
2023-02-01T01:37:04.210Z,97.70
2023-02-01T01:39:32.213Z,97.50
2023-02-01T01:42:00.108Z,97.50
2023-02-01T01:45:11.051Z,97.40
2023-02-01T01:47:48.149Z,97.40
2023-02-01T01:50:20.798Z,97.60
2023-02-01T01:52:52.231Z,97.40
2023-02-01T01:55:22.346Z,97.40
2023-02-01T01:57:55.559Z,97.40
2023-02-01T02:00:24.120Z,97.30
2023-02-01T02:02:58.430Z,97.30
2023-02-01T02:05:26.731Z,97.60
2023-02-01T02:07:58.884Z,97.50
2023-02-01T02:10:46.979Z,97.60
2023-02-01T02:13:17.524Z,97.90
2023-02-01T02:15:52.774Z,97.70
2023-02-01T02:18:29.281Z,97.70
2023-02-01T02:21:17.718Z,97.90
2023-02-01T02:24:18.496Z,97.70
2023-02-01T02:27:04.653Z,97.70
2023-02-01T02:30:06.164Z,97.40
2023-02-01T02:33:01.941Z,97.60
2023-02-01T02:35:38.649Z,97.80
2023-02-01T02:38:15.411Z,97.70
2023-02-01T02:40:50.263Z,97.80
2023-02-01T02:43:41.533Z,97.70
2023-02-01T02:46:36.515Z,97.60
2023-02-01T02:49:11.499Z,97.50
2023-02-01T02:52:03.140Z,97.40
2023-02-01T02:54:51.697Z,97.50
2023-02-01T02:57:42.233Z,97.60
2023-02-01T03:00:31.975Z,97.50
2023-02-01T03:03:17.531Z,97.40
2023-02-01T03:05:47.430Z,97.30
2023-02-01T03:08:20.670Z,97.10
2023-02-01T03:10:56.912Z,97.10
2023-02-01T03:13:34.162Z,96.90
2023-02-01T03:16:08.966Z,96.90
2023-02-01T03:18:42.297Z,97.00
2023-02-01T03:21:14.602Z,97.10
2023-02-01T03:23:45.820Z,96.90
2023-02-01T03:26:17.055Z,96.70
2023-02-01T03:28:49.491Z,96.70
2023-02-01T03:31:17.830Z,96.70
2023-02-01T03:33:46.092Z,96.50
2023-02-01T03:36:23.757Z,96.70
2023-02-01T03:39:00.512Z,96.80
2023-02-01T03:41:35.302Z,96.60
2023-02-01T03:44:08.727Z,96.50
2023-02-01T03:46:41.147Z,96.20
2023-02-01T03:49:13.700Z,96.30
2023-02-01T03:51:43.130Z,96.50
2023-02-01T03:54:17.050Z,96.80
2023-02-01T03:56:48.074Z,96.90
2023-02-01T03:59:16.723Z,96.60
2023-02-01T04:01:44.687Z,96.20
2023-02-01T04:04:20.686Z,96.60
2023-02-01T04:06:48.903Z,96.60
2023-02-01T04:09:18.753Z,96.90
2023-02-01T04:11:46.638Z,96.80
2023-02-01T04:14:14.586Z,97.40
2023-02-01T04:16:42.536Z,97.50
2023-02-01T04:19:10.580Z,97.70
2023-02-01T04:21:38.670Z,97.80
2023-02-01T04:24:07.888Z,98.20
2023-02-01T04:26:37.644Z,97.80
2023-02-01T04:29:05.596Z,98.30
2023-02-01T04:31:33.655Z,98.20
2023-02-01T04:34:01.829Z,98.00
2023-02-01T04:36:29.891Z,98.40
2023-02-01T04:38:57.791Z,98.30
2023-02-01T04:41:26.075Z,98.50
2023-02-01T04:43:55.309Z,98.20
2023-02-01T04:46:23.591Z,98.00
2023-02-01T04:48:51.566Z,97.90
2023-02-01T04:51:19.917Z,98.10
2023-02-01T04:53:47.850Z,98.20
2023-02-01T04:56:15.856Z,98.10
2023-02-01T04:58:43.724Z,97.50
2023-02-01T05:01:13.062Z,98.00
2023-02-01T05:03:41.001Z,97.90
2023-02-01T05:06:09.299Z,98.20
2023-02-01T05:08:38.840Z,98.00
2023-02-01T05:11:07.198Z,97.90
2023-02-01T05:13:49.317Z,98.00
2023-02-01T05:16:18.876Z,97.90
2023-02-01T05:18:47.030Z,97.90
2023-02-01T05:21:15.160Z,97.70
2023-02-01T05:23:57.155Z,97.90
2023-02-01T05:26:25.197Z,98.40
2023-02-01T05:28:53.364Z,98.30
2023-02-01T05:31:22.917Z,98.50
2023-02-01T05:33:51.011Z,98.70
2023-02-01T05:36:19.057Z,99.00
2023-02-01T05:38:47.259Z,98.90
2023-02-01T05:41:15.263Z,98.80
2023-02-01T05:43:43.296Z,99.00
2023-02-01T05:46:13.602Z,98.90
2023-02-01T05:48:43.726Z,99.10
2023-02-01T05:51:12.472Z,98.90
2023-02-01T05:53:40.477Z,99.00
2023-02-01T05:56:09.516Z,99.10
2023-02-01T05:58:37.487Z,99.10
2023-02-01T06:01:06.065Z,99.10
2023-02-01T06:03:34.516Z,99.30
2023-02-01T06:06:05.072Z,99.20
2023-02-01T06:08:32.956Z,99.40
2023-02-01T06:11:01.590Z,99.50
2023-02-01T06:13:29.685Z,99.40
2023-02-01T06:15:58.602Z,99.50
2023-02-01T06:18:26.571Z,99.50
2023-02-01T06:20:55.653Z,99.30
2023-02-01T06:23:25.539Z,99.40
2023-02-01T06:25:54.195Z,99.40
2023-02-01T06:28:22.541Z,99.40
2023-02-01T06:30:50.518Z,99.20
2023-02-01T06:33:18.492Z,99.10
2023-02-01T06:35:46.575Z,99.70
2023-02-01T06:38:14.670Z,99.90
2023-02-01T06:40:44.617Z,99.90
2023-02-01T06:43:12.508Z,99.90
2023-02-01T06:45:42.673Z,99.90
2023-02-01T06:48:10.636Z,99.90
2023-02-01T06:50:38.581Z,99.90
2023-02-01T06:53:06.543Z,99.90
2023-02-01T06:55:34.664Z,99.90
2023-02-01T06:58:04.092Z,99.90
2023-02-01T07:00:32.231Z,99.70
2023-02-01T07:03:01.111Z,99.40
2023-02-01T07:05:29.047Z,99.80
2023-02-01T07:07:57.437Z,99.90
2023-02-01T07:10:25.572Z,99.40
2023-02-01T07:12:53.507Z,99.80
2023-02-01T07:15:25.240Z,99.50
2023-02-01T07:17:53.339Z,99.80
2023-02-01T07:20:21.672Z,99.80
2023-02-01T07:22:50.249Z,99.60
2023-02-01T07:25:18.301Z,99.90
2023-02-01T07:27:47.415Z,99.90
2023-02-01T07:30:15.541Z,99.90
2023-02-01T07:32:44.926Z,99.90
2023-02-01T07:35:12.875Z,99.90
2023-02-01T07:37:40.786Z,99.90
2023-02-01T07:40:09.735Z,99.90
2023-02-01T07:42:37.696Z,99.90
2023-02-01T07:45:20.241Z,99.90
2023-02-01T07:47:50.926Z,99.90
2023-02-01T07:50:19.102Z,99.90
2023-02-01T07:52:47.088Z,99.90
2023-02-01T07:55:15.174Z,99.90
2023-02-01T07:57:43.622Z,99.90
2023-02-01T08:00:29.922Z,99.90
2023-02-01T08:03:01.267Z,99.90
2023-02-01T08:05:29.674Z,99.90
2023-02-01T08:07:57.571Z,99.90
2023-02-01T08:10:25.845Z,99.90
2023-02-01T08:12:53.855Z,99.90
2023-02-01T08:15:21.851Z,99.90
2023-02-01T08:17:50.139Z,99.90
2023-02-01T08:20:22.808Z,99.90
2023-02-01T08:22:53.995Z,99.90
2023-02-01T08:25:22.539Z,99.90
2023-02-01T08:27:50.540Z,99.90
2023-02-01T08:30:19.004Z,99.90
2023-02-01T08:32:46.921Z,99.90
2023-02-01T08:35:15.145Z,99.90
2023-02-01T08:37:44.555Z,99.90
2023-02-01T08:40:14.669Z,99.90
2023-02-01T08:42:55.573Z,99.90
2023-02-01T08:45:25.802Z,99.90
2023-02-01T08:47:54.812Z,99.90
2023-02-01T08:50:24.167Z,99.90
2023-02-01T08:52:54.358Z,99.90
2023-02-01T08:55:22.675Z,99.90
2023-02-01T08:57:50.612Z,99.90
2023-02-01T09:00:19.578Z,99.90
2023-02-01T09:02:47.751Z,99.90
2023-02-01T09:05:17.379Z,99.90
2023-02-01T09:07:45.350Z,99.90
2023-02-01T09:10:17.236Z,99.90
2023-02-01T09:12:47.001Z,99.90
2023-02-01T09:15:14.989Z,99.90
2023-02-01T09:17:44.393Z,99.90
2023-02-01T09:20:13.809Z,99.90
2023-02-01T09:22:42.205Z,99.90
2023-02-01T09:25:10.725Z,99.90
2023-02-01T09:27:40.054Z,99.90
2023-02-01T09:30:09.273Z,99.90
2023-02-01T09:32:38.358Z,99.90
2023-02-01T09:35:07.090Z,99.90
2023-02-01T09:37:35.092Z,99.90
2023-02-01T09:40:03.356Z,99.90
2023-02-01T09:42:51.445Z,99.90
2023-02-01T09:45:29.356Z,99.90
2023-02-01T09:48:01.497Z,99.90
2023-02-01T09:50:38.312Z,99.90
2023-02-01T09:53:11.962Z,99.90
2023-02-01T09:55:44.225Z,99.90
2023-02-01T09:58:19.726Z,99.90
2023-02-01T10:00:52.642Z,99.90
2023-02-01T10:03:20.967Z,99.90
2023-02-01T10:06:15.363Z,99.90
2023-02-01T10:09:02.108Z,99.90
2023-02-01T10:11:49.158Z,99.90
2023-02-01T10:14:45.845Z,99.90
2023-02-01T10:17:24.172Z,99.90
2023-02-01T10:20:06.820Z,99.90
2023-02-01T10:23:08.663Z,99.90
2023-02-01T10:25:39.137Z,99.80
2023-02-01T10:28:07.160Z,99.60
2023-02-01T10:30:44.018Z,99.70
2023-02-01T10:33:18.225Z,99.70
2023-02-01T10:35:47.870Z,99.60
2023-02-01T10:38:26.544Z,99.40
2023-02-01T10:40:56.872Z,99.20
2023-02-01T10:43:24.968Z,99.40
2023-02-01T10:45:54.363Z,99.60
2023-02-01T10:48:22.559Z,99.90
2023-02-01T10:50:56.793Z,99.80
2023-02-01T10:53:30.346Z,99.40
2023-02-01T10:55:58.271Z,99.10
2023-02-01T10:58:29.626Z,99.10
2023-02-01T11:01:03.756Z,98.70
2023-02-01T11:03:41.272Z,98.70
2023-02-01T11:06:21.814Z,98.30
2023-02-01T11:08:51.975Z,98.50
2023-02-01T11:11:20.568Z,98.40
2023-02-01T11:13:56.126Z,98.20
2023-02-01T11:16:34.823Z,98.30
2023-02-01T11:19:02.925Z,97.80
2023-02-01T11:21:31.628Z,97.80
2023-02-01T11:24:03.958Z,97.70
2023-02-01T11:26:33.743Z,97.90
2023-02-01T11:29:05.307Z,97.90
2023-02-01T11:31:36.880Z,98.10
2023-02-01T11:34:10.807Z,98.00
2023-02-01T11:36:39.601Z,98.20
2023-02-01T11:39:21.934Z,98.10
2023-02-01T11:42:00.779Z,98.20
2023-02-01T11:44:34.364Z,97.60
2023-02-01T11:47:28.302Z,97.30
2023-02-01T11:49:57.787Z,97.00
2023-02-01T11:52:50.673Z,96.90
2023-02-01T11:55:48.674Z,97.10
2023-02-01T11:58:34.027Z,96.70
2023-02-01T12:01:18.821Z,96.60
2023-02-01T12:04:17.802Z,96.30
2023-02-01T12:06:52.252Z,96.20
2023-02-01T12:09:34.875Z,95.10
2023-02-01T12:12:10.181Z,95.40
2023-02-01T12:14:55.607Z,95.30
2023-02-01T12:18:04.061Z,94.60
2023-02-01T12:20:59.964Z,94.80
2023-02-01T12:23:43.499Z,94.60
2023-02-01T12:26:38.435Z,94.40
2023-02-01T12:29:45.373Z,93.80
2023-02-01T12:32:31.473Z,94.40
2023-02-01T12:35:28.339Z,94.60
2023-02-01T12:38:11.738Z,94.20
2023-02-01T12:40:51.281Z,93.80
2023-02-01T12:43:26.162Z,93.70
2023-02-01T12:45:59.061Z,93.70
2023-02-01T12:48:33.024Z,93.50
2023-02-01T12:51:06.611Z,93.30
2023-02-01T12:53:47.845Z,93.10
2023-02-01T12:56:22.675Z,93.10
2023-02-01T12:58:53.303Z,93.00
2023-02-01T13:01:24.557Z,93.00
2023-02-01T13:04:00.905Z,93.20
2023-02-01T13:06:33.230Z,93.00
2023-02-01T13:09:07.700Z,92.80
2023-02-01T13:11:38.708Z,92.10
2023-02-01T13:14:19.640Z,92.50
2023-02-01T13:16:51.302Z,92.50
2023-02-01T13:19:22.783Z,92.80
2023-02-01T13:21:55.288Z,92.60
2023-02-01T13:24:33.155Z,92.60
2023-02-01T13:27:02.531Z,92.20
2023-02-01T13:29:32.347Z,92.30
2023-02-01T13:32:18.077Z,92.30
2023-02-01T13:35:05.438Z,92.10
2023-02-01T13:37:49.999Z,91.60
2023-02-01T13:40:38.679Z,91.50
2023-02-01T13:43:13.404Z,91.50
2023-02-01T13:45:47.421Z,92.00
2023-02-01T13:48:23.959Z,91.90
2023-02-01T13:50:55.488Z,91.60
2023-02-01T13:53:28.383Z,91.50
2023-02-01T13:56:03.779Z,91.40
2023-02-01T13:58:34.884Z,91.40
2023-02-01T14:01:44.733Z,91.50
2023-02-01T14:04:45.562Z,91.50
2023-02-01T14:07:20.891Z,91.70
2023-02-01T14:09:49.432Z,91.70
2023-02-01T14:12:48.379Z,91.70
2023-02-01T14:15:29.170Z,91.80
2023-02-01T14:17:57.694Z,92.10
2023-02-01T14:20:49.792Z,92.20
2023-02-01T14:23:26.575Z,92.30
2023-02-01T14:26:16.482Z,92.10
2023-02-01T14:28:54.028Z,92.10
2023-02-01T14:31:42.911Z,92.20
2023-02-01T14:34:19.484Z,92.00
2023-02-01T14:36:52.299Z,92.00
2023-02-01T14:39:28.997Z,92.20
2023-02-01T14:42:02.685Z,92.20
2023-02-01T14:44:37.903Z,92.30
2023-02-01T14:47:12.336Z,92.40
2023-02-01T14:49:51.621Z,92.10
2023-02-01T14:52:22.477Z,92.20
2023-02-01T14:54:55.440Z,92.40
2023-02-01T14:57:27.677Z,92.50
2023-02-01T15:00:07.008Z,92.50
2023-02-01T15:02:39.752Z,92.70
2023-02-01T15:05:27.704Z,92.50
2023-02-01T15:07:56.313Z,92.80
2023-02-01T15:10:25.788Z,92.80
2023-02-01T15:12:53.734Z,92.50
2023-02-01T15:15:26.222Z,92.50
2023-02-01T15:17:56.130Z,92.60
2023-02-01T15:20:26.916Z,92.50
2023-02-01T15:22:58.158Z,92.70
2023-02-01T15:25:28.901Z,92.60
2023-02-01T15:27:57.819Z,92.60
2023-02-01T15:30:29.388Z,92.80
2023-02-01T15:33:08.456Z,93.00
2023-02-01T15:35:45.276Z,93.10
2023-02-01T15:38:34.588Z,93.30
2023-02-01T15:41:05.179Z,93.40
2023-02-01T15:43:35.547Z,93.60
2023-02-01T15:46:09.223Z,93.50
2023-02-01T15:48:41.085Z,93.50
2023-02-01T15:51:19.173Z,93.70
2023-02-01T15:53:50.507Z,93.70
2023-02-01T15:56:23.501Z,93.60
2023-02-01T15:58:55.974Z,93.60
2023-02-01T16:01:25.637Z,93.90
2023-02-01T16:04:06.164Z,93.90
2023-02-01T16:06:36.171Z,94.00
2023-02-01T16:09:13.151Z,94.20
2023-02-01T16:11:51.020Z,94.20
2023-02-01T16:14:19.153Z,94.50
2023-02-01T16:16:48.654Z,94.80
2023-02-01T16:19:16.630Z,95.30
2023-02-01T16:21:44.768Z,95.00
2023-02-01T16:24:12.912Z,94.60
2023-02-01T16:26:40.962Z,94.90
2023-02-01T16:29:09.631Z,95.10
2023-02-01T16:31:39.797Z,94.80
2023-02-01T16:34:17.911Z,94.70
2023-02-01T16:36:52.566Z,94.80
2023-02-01T16:39:20.910Z,94.90
2023-02-01T16:41:49.159Z,95.20
2023-02-01T16:44:17.840Z,95.00
2023-02-01T16:46:48.764Z,95.40
2023-02-01T16:49:21.744Z,94.90
2023-02-01T16:51:51.013Z,95.10
2023-02-01T16:54:19.644Z,95.40
2023-02-01T16:56:48.581Z,95.50
2023-02-01T16:59:16.588Z,95.90
2023-02-01T17:01:44.523Z,97.30
2023-02-01T17:04:12.881Z,97.90
2023-02-01T17:06:42.628Z,98.00
2023-02-01T17:09:11.926Z,97.50
2023-02-01T17:11:39.924Z,98.10
2023-02-01T17:14:17.475Z,98.60
2023-02-01T17:16:47.397Z,98.80
2023-02-01T17:19:18.720Z,98.80
2023-02-01T17:21:51.584Z,99.10
2023-02-01T17:24:22.181Z,99.20
2023-02-01T17:26:51.491Z,99.00
2023-02-01T17:29:20.211Z,99.30
2023-02-01T17:31:50.975Z,99.40
2023-02-01T17:34:20.050Z,99.50
2023-02-01T17:36:50.491Z,99.90
2023-02-01T17:39:33.029Z,99.90
2023-02-01T17:42:01.662Z,99.90
2023-02-01T17:44:29.609Z,99.90
2023-02-01T17:46:59.309Z,99.90
2023-02-01T17:49:28.752Z,99.90
2023-02-01T17:51:59.099Z,99.90
2023-02-01T17:54:27.094Z,99.90
2023-02-01T17:56:55.014Z,99.90
2023-02-01T17:59:22.961Z,99.90
2023-02-01T18:01:51.812Z,99.90
2023-02-01T18:04:21.802Z,99.90
2023-02-01T18:06:50.202Z,99.90
2023-02-01T18:09:20.308Z,99.90
2023-02-01T18:11:50.370Z,99.90
2023-02-01T18:14:18.504Z,99.90
2023-02-01T18:16:46.871Z,99.90
2023-02-01T18:19:14.901Z,99.90
2023-02-01T18:21:44.735Z,99.90
2023-02-01T18:24:14.786Z,99.90
2023-02-01T18:26:44.511Z,99.90
2023-02-01T18:29:12.597Z,99.90
2023-02-01T18:31:47.379Z,99.90
2023-02-01T18:34:21.399Z,99.90
2023-02-01T18:36:49.627Z,99.90
2023-02-01T18:39:18.219Z,99.90
2023-02-01T18:41:49.234Z,99.90
2023-02-01T18:44:17.931Z,99.90
2023-02-01T18:46:47.144Z,99.90
2023-02-01T18:49:19.849Z,99.90
2023-02-01T18:51:48.096Z,99.80
2023-02-01T18:54:16.106Z,99.90
2023-02-01T18:56:44.839Z,99.80
2023-02-01T18:59:14.514Z,99.80
2023-02-01T19:01:44.868Z,99.50
2023-02-01T19:04:15.083Z,99.20
2023-02-01T19:06:45.668Z,99.20
2023-02-01T19:09:13.954Z,99.10
2023-02-01T19:11:42.247Z,98.90
2023-02-01T19:14:10.228Z,98.90
2023-02-01T19:16:39.808Z,98.70
2023-02-01T19:19:08.873Z,99.30
2023-02-01T19:21:37.323Z,99.10
2023-02-01T19:24:05.678Z,99.30
2023-02-01T19:26:33.916Z,99.60
2023-02-01T19:29:01.857Z,99.70
2023-02-01T19:31:29.932Z,99.70
2023-02-01T19:33:59.374Z,99.90
2023-02-01T19:36:27.778Z,99.90
2023-02-01T19:38:55.853Z,99.90
2023-02-01T19:41:23.868Z,99.90
2023-02-01T19:43:51.818Z,99.90
2023-02-01T19:46:19.759Z,99.90
2023-02-01T19:48:47.792Z,99.90
2023-02-01T19:51:17.528Z,99.90
2023-02-01T19:53:45.847Z,99.90
2023-02-01T19:56:13.934Z,99.90
2023-02-01T19:58:42.301Z,99.90
2023-02-01T20:01:09.787Z,99.90
2023-02-01T20:03:37.906Z,99.90
2023-02-01T20:06:07.411Z,99.90
2023-02-01T20:08:36.698Z,99.90
2023-02-01T20:11:07.100Z,99.90
2023-02-01T20:13:38.491Z,99.90
2023-02-01T20:16:07.383Z,99.90
2023-02-01T20:18:36.327Z,99.90
2023-02-01T20:21:04.508Z,99.90
2023-02-01T20:23:32.424Z,99.90
2023-02-01T20:26:05.005Z,99.90
2023-02-01T20:28:33.682Z,99.90
2023-02-01T20:31:02.155Z,99.90
2023-02-01T20:33:31.005Z,99.90
2023-02-01T20:35:59.269Z,99.90
2023-02-01T20:38:27.289Z,99.90
2023-02-01T20:41:02.277Z,99.90
2023-02-01T20:43:31.934Z,99.90
2023-02-01T20:45:59.888Z,99.90
2023-02-01T20:48:29.073Z,99.90
2023-02-01T20:50:57.947Z,99.90
2023-02-01T20:53:27.250Z,99.90
2023-02-01T20:55:56.418Z,99.90
2023-02-01T20:58:24.630Z,99.90
2023-02-01T21:00:54.561Z,99.90
2023-02-01T21:03:22.785Z,99.90
2023-02-01T21:05:52.513Z,99.90
2023-02-01T21:08:21.104Z,99.90
2023-02-01T21:10:57.432Z,99.90
2023-02-01T21:13:25.761Z,99.70
2023-02-01T21:15:55.239Z,99.90
2023-02-01T21:18:23.207Z,99.80
2023-02-01T21:20:51.686Z,99.70
2023-02-01T21:23:20.300Z,99.60
2023-02-01T21:25:48.735Z,99.50
2023-02-01T21:28:16.831Z,99.70
2023-02-01T21:30:44.762Z,99.90
2023-02-01T21:33:14.106Z,99.90
2023-02-01T21:35:43.261Z,99.90
2023-02-01T21:38:11.336Z,99.90
2023-02-01T21:40:39.268Z,99.90
2023-02-01T21:43:07.157Z,99.90
2023-02-01T21:45:35.988Z,99.90
2023-02-01T21:48:06.937Z,99.80
2023-02-01T21:50:36.206Z,99.40
2023-02-01T21:53:04.579Z,99.20
2023-02-01T21:55:32.513Z,99.50
2023-02-01T21:58:00.547Z,99.90
2023-02-01T22:00:28.430Z,99.90
2023-02-01T22:02:56.407Z,99.90
2023-02-01T22:05:24.618Z,99.90
2023-02-01T22:07:54.137Z,99.90
2023-02-01T22:10:24.202Z,99.90
2023-02-01T22:12:52.218Z,99.90
2023-02-01T22:15:20.506Z,99.90
2023-02-01T22:17:48.570Z,99.90
2023-02-01T22:20:16.792Z,99.90
2023-02-01T22:22:48.313Z,99.90
2023-02-01T22:25:17.839Z,99.90
2023-02-01T22:28:31.684Z,99.90
2023-02-01T22:30:33.889Z,99.90
2023-02-01T22:33:01.853Z,99.90
2023-02-01T22:35:29.927Z,99.90
2023-02-01T22:37:57.963Z,99.90
2023-02-01T22:40:27.372Z,99.90
2023-02-01T22:42:55.319Z,99.90
2023-02-01T22:45:23.604Z,99.90
2023-02-01T22:47:52.794Z,99.90
2023-02-01T22:50:21.904Z,99.90
2023-02-01T22:52:49.822Z,99.90
2023-02-01T22:55:17.939Z,99.90
2023-02-01T22:57:47.687Z,99.90
2023-02-01T23:00:16.199Z,99.90
2023-02-01T23:02:44.411Z,99.90
2023-02-01T23:05:12.315Z,99.90
2023-02-01T23:07:40.244Z,99.90
2023-02-01T23:10:09.316Z,99.90
2023-02-01T23:12:37.243Z,99.90
2023-02-01T23:15:08.120Z,99.90
2023-02-01T23:17:37.483Z,99.90
2023-02-01T23:20:07.206Z,99.90
2023-02-01T23:22:35.397Z,99.90
2023-02-01T23:25:03.337Z,99.90
2023-02-01T23:27:31.239Z,99.90
2023-02-01T23:29:59.169Z,99.90
2023-02-01T23:32:28.452Z,99.90
2023-02-01T23:34:56.370Z,99.90
2023-02-01T23:37:24.296Z,99.90
2023-02-01T23:39:52.726Z,99.90
2023-02-01T23:42:21.046Z,99.90
2023-02-01T23:44:49.417Z,99.90
2023-02-01T23:47:17.443Z,99.90
2023-02-01T23:49:47.726Z,99.90
2023-02-01T23:52:15.656Z,99.90
2023-02-01T23:54:43.669Z,99.90
2023-02-01T23:57:11.606Z,99.90
2023-02-01T23:59:39.782Z,99.90
